Chicago Bridge — H9NR — position and weather

sailwx.info

Track history (hours):
 
Tides and Currents Weather Stations Pressure Air Temp Water Temp Dewpoint Dewpoint Depression Visibility Wind Speed Wind Dir Waves Ship Positions

Chicago Bridge

Last reported at 2014-Oct-17 03:30 UTC. Time now 2014-Oct-23 16:39 UTC.
Position N 24°28' E 119°03'.

Length 279 m; draft 11.2 m.

Type: Ship (hazmat cat B). MMSI: 352018000.

Date/timePositionNaut miles runAvg speedWind from/ knotsBaromVisibWave heightAir tempDewpointWater temp
2014-Oct-17 03:30N 24°28' E 119°03'3817.0
2014-Oct-17 01:17N 24°14' E 118°24'1013.3
2014-Oct-17 00:33N 24°17' E 118°14'1312.6
2014-Oct-16 23:33N 24°26' E 118°04'5 1.6
2014-Oct-16 20:25N 24°27' E 117°59'0 0.0
2014-Oct-16 19:07N 24°27' E 117°59'0 0.0
2014-Oct-16 18:25N 24°27' E 117°59'0 0.0
2014-Oct-16 14:07N 24°27' E 117°59'0 0.0
2014-Oct-16 13:31N 24°27' E 117°59'0 0.0
2014-Oct-16 12:06N 24°27' E 117°59'0 0.0
2014-Oct-16 11:18N 24°27' E 117°59'0 0.0
2014-Oct-16 09:30N 24°27' E 117°59'0 0.0
2014-Oct-16 08:18N 24°27' E 117°59'0 0.0
2014-Oct-16 05:24N 24°27' E 117°59'0 0.0
2014-Oct-16 04:29N 24°27' E 117°59'3 3.6
2014-Oct-16 03:31N 24°26' E 118°02'8 8.5
2014-Oct-16 02:33N 24°21' E 118°09'1111.1
2014-Oct-16 01:33N 24°13' E 118°18'1515.4
2014-Oct-16 00:33N 23°58' E 118°15'1716.9
2014-Oct-15 23:32N 23°45' E 118°03'22010.8
2014-Oct-15 03:12N 22°34' E 114°16'0 0.0
2014-Oct-15 02:24N 22°34' E 114°16'0 0.0
2014-Oct-15 01:24N 22°34' E 114°16'0 0.0
2014-Oct-14 16:24N 22°34' E 114°16'0 0.0
2014-Oct-14 15:24N 22°34' E 114°16'0 0.1
2014-Oct-14 14:24N 22°34' E 114°16'1 0.7
2014-Oct-14 13:33N 22°34' E 114°16'16 3.2
2014-Oct-14 08:27N 22°20' E 114°07'0 0.1
2014-Oct-14 05:21N 22°19' E 114°07'0 0.0
2014-Oct-14 00:14N 22°19' E 114°07'0 0.0
2014-Oct-13 22:26N 22°19' E 114°07'0 0.0
2014-Oct-13 20:32N 22°19' E 114°07'0 0.0
2014-Oct-13 19:26N 22°19' E 114°07'0 0.0
2014-Oct-13 13:20N 22°19' E 114°07'0 0.0
2014-Oct-13 09:13N 22°19' E 114°07'17 2.5
2014-Oct-13 02:31N 22°34' E 114°16'0 0.0
2014-Oct-12 22:28N 22°34' E 114°16'0 0.0
2014-Oct-12 21:10N 22°34' E 114°16'0 0.1
2014-Oct-12 20:16N 22°34' E 114°16'0 0.0
2014-Oct-12 19:28N 22°34' E 114°16'0 0.1
2014-Oct-12 15:05N 22°34' E 114°16'19213.7
2014-Oct-12 01:04N 23°25' E 117°37'2315.1
2014-Oct-11 23:33N 23°37' E 117°58'1615.7
2014-Oct-11 22:32N 23°46' E 118°13'1616.1
2014-Oct-11 21:33N 23°55' E 118°27'1716.1
2014-Oct-11 20:31N 24°06' E 118°41'1616.4
2014-Oct-11 19:32N 24°16' E 118°55'2316.7
2014-Oct-11 18:11N 24°30' E 119°15'  
Track history (hours):
 
Tides and Currents Weather Stations Pressure Air Temp Water Temp Dewpoint Dewpoint Depression Visibility Wind Speed Wind Dir Waves Ship Positions

Chicago Bridge

Last reported at 2014-Oct-17 03:30 UTC. Time now 2014-Oct-23 16:39 UTC.
Position N 24°28' E 119°03'.

Length 279 m; draft 11.2 m.

Type: Ship (hazmat cat B). MMSI: 352018000.

Date/timePositionNaut miles runAvg speedWind from/ knotsBaromVisibWave heightAir tempDewpointWater temp
2014-Oct-17 03:30N 24°28' E 119°03'3817.0
2014-Oct-17 01:17N 24°14' E 118°24'1013.3
2014-Oct-17 00:33N 24°17' E 118°14'1312.6
2014-Oct-16 23:33N 24°26' E 118°04'5 1.6
2014-Oct-16 20:25N 24°27' E 117°59'0 0.0
2014-Oct-16 19:07N 24°27' E 117°59'0 0.0
2014-Oct-16 18:25N 24°27' E 117°59'0 0.0
2014-Oct-16 14:07N 24°27' E 117°59'0 0.0
2014-Oct-16 13:31N 24°27' E 117°59'0 0.0
2014-Oct-16 12:06N 24°27' E 117°59'0 0.0
2014-Oct-16 11:18N 24°27' E 117°59'0 0.0
2014-Oct-16 09:30N 24°27' E 117°59'0 0.0
2014-Oct-16 08:18N 24°27' E 117°59'0 0.0
2014-Oct-16 05:24N 24°27' E 117°59'0 0.0
2014-Oct-16 04:29N 24°27' E 117°59'3 3.6
2014-Oct-16 03:31N 24°26' E 118°02'8 8.5
2014-Oct-16 02:33N 24°21' E 118°09'1111.1
2014-Oct-16 01:33N 24°13' E 118°18'1515.4
2014-Oct-16 00:33N 23°58' E 118°15'1716.9
2014-Oct-15 23:32N 23°45' E 118°03'22010.8
2014-Oct-15 03:12N 22°34' E 114°16'0 0.0
2014-Oct-15 02:24N 22°34' E 114°16'0 0.0
2014-Oct-15 01:24N 22°34' E 114°16'0 0.0
2014-Oct-14 16:24N 22°34' E 114°16'0 0.0
2014-Oct-14 15:24N 22°34' E 114°16'0 0.1
2014-Oct-14 14:24N 22°34' E 114°16'1 0.7
2014-Oct-14 13:33N 22°34' E 114°16'16 3.2
2014-Oct-14 08:27N 22°20' E 114°07'0 0.1
2014-Oct-14 05:21N 22°19' E 114°07'0 0.0
2014-Oct-14 00:14N 22°19' E 114°07'0 0.0
2014-Oct-13 22:26N 22°19' E 114°07'0 0.0
2014-Oct-13 20:32N 22°19' E 114°07'0 0.0
2014-Oct-13 19:26N 22°19' E 114°07'0 0.0
2014-Oct-13 13:20N 22°19' E 114°07'0 0.0
2014-Oct-13 09:13N 22°19' E 114°07'17 2.5
2014-Oct-13 02:31N 22°34' E 114°16'0 0.0
2014-Oct-12 22:28N 22°34' E 114°16'0 0.0
2014-Oct-12 21:10N 22°34' E 114°16'0 0.1
2014-Oct-12 20:16N 22°34' E 114°16'0 0.0
2014-Oct-12 19:28N 22°34' E 114°16'0 0.1
2014-Oct-12 15:05N 22°34' E 114°16'19213.7
2014-Oct-12 01:04N 23°25' E 117°37'2315.1
2014-Oct-11 23:33N 23°37' E 117°58'1615.7
2014-Oct-11 22:32N 23°46' E 118°13'1616.1
2014-Oct-11 21:33N 23°55' E 118°27'1716.1
2014-Oct-11 20:31N 24°06' E 118°41'1616.4
2014-Oct-11 19:32N 24°16' E 118°55'2316.7
2014-Oct-11 18:11N 24°30' E 119°15'  

Dump ship's entire track history